D/T METAR WX W/DIR W/SPE G/SPE TEMP DEWP
20/06/19 15:20 EGHH 201420Z 24013KT 200V270 9999 8000N VCSH FEW022CB SCT033 18/10 Q1014 VCSH WSW (240°) 15.0mph 18°C 10°C
20/06/19 14:50 EGHH 201350Z 24015KT 9999 9000NE VCSH FEW022CB SCT034 18/10 Q1014 VCSH WSW (240°) 17.3mph 18°C 10°C
20/06/19 14:20 EGHH 201320Z 25013KT 200V270 9999 7000NE VCSH SCT022CB SCT034 18/10 Q1014 VCSH WSW (250°) 15.0mph 18°C 10°C
20/06/19 13:50 EGHH 201250Z 25011KT 9999 FEW023 SCT037 18/11 Q1014 WSW (250°) 12.7mph 18°C 11°C
20/06/19 13:20 EGHH 201220Z 24011KT 9999 FEW021 SCT039 18/10 Q1014 WSW (240°) 12.7mph 18°C 10°C
20/06/19 12:50 EGHH 201150Z 25012KT 9999 FEW021 SCT029 17/12 Q1014 WSW (250°) 13.8mph 17°C 12°C
20/06/19 12:20 EGHH 201120Z 26011KT 9999 FEW021 SCT028 17/10 Q1014 W (260°) 12.7mph 17°C 10°C
20/06/19 11:50 EGHH 201050Z 26010KT 9999 FEW021 SCT048 16/10 Q1014 W (260°) 11.5mph 16°C 10°C
20/06/19 11:20 EGHH 201020Z 25010KT 9999 -RA SCT021 SCT048CB 15/10 Q1014 -RA WSW (250°) 11.5mph 15°C 10°C
20/06/19 10:50 EGHH 200950Z 25010KT 9999 -RA SCT023 SCT048 15/10 Q1013 -RA WSW (250°) 11.5mph 15°C 10°C
20/06/19 10:20 EGHH 200920Z 25008KT 190V270 9999 SCT020 SCT048 17/12 Q1013 WSW (250°) 9.2mph 17°C 12°C
20/06/19 09:50 EGHH 200850Z 25009KT 9999 SCT018 SCT048 16/11 Q1013 WSW (250°) 10.4mph 16°C 11°C
20/06/19 09:20 EGHH 200820Z 26010KT 240V300 9999 SCT017 SCT048 14/11 Q1013 W (260°) 11.5mph 14°C 11°C
20/06/19 08:50 EGHH 200750Z 26010KT 9999 FEW015 SCT048 14/11 Q1013 W (260°) 11.5mph 14°C 11°C
20/06/19 08:20 EGHH 200720Z 27010KT 9999 FEW020 SCT048 14/11 Q1013 W (270°) 11.5mph 14°C 11°C
20/06/19 07:50 EGHH 200650Z 26009KT 9999 FEW030 14/11 Q1013 W (260°) 10.4mph 14°C 11°C
20/06/19 06:50 EGHH 200550Z 26007KT 9999 FEW035 12/10 Q1012 W (260°) 8.1mph 12°C 10°C
20/06/19 06:20 EGHH 200520Z 26008KT 9999 FEW035 11/10 Q1012 W (260°) 9.2mph 11°C 10°C
20/06/19 05:50 EGHH 200450Z 27008KT 9999 FEW035 10/09 Q1012 W (270°) 9.2mph 10°C 9°C
20/06/19 01:20 EGHH 200020Z 30006KT CAVOK 11/09 Q1011 WNW (300°) 6.9mph 11°C 9°C
20/06/19 00:20 EGHH 192320Z 30007KT CAVOK 13/09 Q1011 WNW (300°) 8.1mph 13°C 9°C
19/06/19 23:50 EGHH 192250Z 30007KT CAVOK 13/09 Q1011 WNW (300°) 8.1mph 13°C 9°C
19/06/19 23:20 EGHH 192220Z 29008KT CAVOK 13/11 Q1010 WNW (290°) 9.2mph 13°C 11°C
19/06/19 22:50 EGHH 192150Z 27006KT CAVOK 13/12 Q1010 W (270°) 6.9mph 13°C 12°C
19/06/19 22:20 EGHH 192120Z 28005KT CAVOK 14/12 Q1010 W (280°) 5.8mph 14°C 12°C
19/06/19 21:50 EGHH 192050Z 27004KT 9999 FEW025 14/12 Q1010 W (270°) 4.6mph 14°C 12°C
19/06/19 21:20 EGHH 192020Z 29007KT 9999 FEW043 BKN049 14/12 Q1009 WNW (290°) 8.1mph 14°C 12°C
19/06/19 20:50 EGHH 191950Z 28007KT 9999 SCT020 BKN032 15/13 Q1009 W (280°) 8.1mph 15°C 13°C
19/06/19 20:20 EGHH 191920Z 25006KT 9000 SCT020 BKN032 16/15 Q1009 WSW (250°) 6.9mph 16°C 15°C
19/06/19 19:50 EGHH 191850Z 23003KT 7000 SCT018 BKN027 15/15 Q1009 SW (230°) 3.5mph 15°C 15°C
19/06/19 18:50 EGHH 191750Z 28009KT 5000 BR FEW005 BKN011 OVC020 16/15 Q1009 BR W (280°) 10.4mph 16°C 15°C
19/06/19 18:20 EGHH 191720Z 26004KT 9000 SCT010 BKN020 16/15 Q1008 W (260°) 4.6mph 16°C 15°C
19/06/19 17:50 EGHH 191650Z 26005KT 6000 -RA SCT009 BKN017 16/15 Q1008 -RA W (260°) 5.8mph 16°C 15°C
19/06/19 16:50 EGHH 191550Z 30004KT 8000 -RA SCT015 BKN025 16/15 Q1008 -RA WNW (300°) 4.6mph 16°C 15°C
19/06/19 16:20 EGHH 191520Z 30010KT 9000 -RA SCT020 BKN028 17/14 Q1008 -RA WNW (300°) 11.5mph 17°C 14°C
19/06/19 15:50 EGHH 191450Z 28007KT 240V300 9999 SCT024 BKN035 18/13 Q1008 W (280°) 8.1mph 18°C 13°C
19/06/19 15:20 EGHH 191420Z 27006KT 230V320 9999 SCT023 BKN035 19/14 Q1008 W (270°) 6.9mph 19°C 14°C
19/06/19 14:50 EGHH 191350Z 27005KT 240V320 9999 SCT023 BKN035 19/13 Q1008 W (270°) 5.8mph 19°C 13°C
19/06/19 14:20 EGHH 191320Z 28006KT 250V360 9999 SCT014 BKN020 19/14 Q1008 W (280°) 6.9mph 19°C 14°C
19/06/19 13:50 EGHH 191250Z 29005KT 260V350 9999 SCT012 BKN017 19/14 Q1008 WNW (290°) 5.8mph 19°C 14°C
19/06/19 12:50 EGHH 191150Z 28007KT 9999 FEW010 BKN014 18/15 Q1008 W (280°) 8.1mph 18°C 15°C
19/06/19 12:20 EGHH 191120Z VRB07KT 9999 -RA FEW009 BKN014 18/15 Q1008 -RA N (0°) 8.1mph 18°C 15°C
19/06/19 11:50 EGHH 191050Z VRB03KT 9999 -RA FEW009 BKN014 17/14 Q1008 -RA N (0°) 3.5mph 17°C 14°C
19/06/19 11:20 EGHH 191020Z 32004KT 300V050 9999 BKN014 17/15 Q1008 NW (320°) 4.6mph 17°C 15°C
19/06/19 10:50 EGHH 190950Z VRB03KT 9999 BKN014 18/14 Q1008 N (0°) 3.5mph 18°C 14°C
19/06/19 10:20 EGHH 190920Z 02004KT 330V080 9999 BKN009 17/15 Q1008 NNE (20°) 4.6mph 17°C 15°C
19/06/19 09:50 EGHH 190850Z 34004KT 330V080 8000 BKN007 17/15 Q1008 NNW (340°) 4.6mph 17°C 15°C
19/06/19 09:20 EGHH 190820Z 02004KT 300V050 7000 BKN006 16/14 Q1007 NNE (20°) 4.6mph 16°C 14°C